createdAt,value
2023-01-11T00:03:30.374Z,2.80
2023-01-11T00:08:51.384Z,3.05
2023-01-11T00:14:12.327Z,2.38
2023-01-11T00:19:33.215Z,3.70
2023-01-11T00:24:54.022Z,2.40
2023-01-11T00:30:14.757Z,3.00
2023-01-11T00:35:35.774Z,2.45
2023-01-11T00:40:56.451Z,3.15
2023-01-11T00:46:43.163Z,3.25
2023-01-11T00:52:08.768Z,2.65
2023-01-11T00:57:29.645Z,3.10
2023-01-11T01:02:51.281Z,3.53
2023-01-11T01:08:12.457Z,3.28
2023-01-11T01:13:51.732Z,3.50
2023-01-11T01:19:12.560Z,3.00
2023-01-11T01:24:34.016Z,3.58
2023-01-11T01:29:55.146Z,3.17
2023-01-11T01:35:16.020Z,3.65
2023-01-11T01:40:44.716Z,5.70
2023-01-11T01:46:05.728Z,4.45
2023-01-11T01:51:42.773Z,2.75
2023-01-11T01:57:10.678Z,3.22
2023-01-11T02:02:31.908Z,2.80
2023-01-11T02:07:56.244Z,3.35
2023-01-11T02:13:17.416Z,2.92
2023-01-11T02:18:38.683Z,2.80
2023-01-11T02:24:30.220Z,2.70
2023-01-11T02:30:20.477Z,3.03
2023-01-11T02:36:10.663Z,3.00
2023-01-11T02:42:21.993Z,2.75
2023-01-11T02:47:42.466Z,3.80
2023-01-11T02:53:16.371Z,3.92
2023-01-11T02:58:42.499Z,3.83
2023-01-11T03:04:03.498Z,3.45
2023-01-11T03:09:34.061Z,3.92
2023-01-11T03:15:24.455Z,3.83
2023-01-11T03:20:51.909Z,3.23
2023-01-11T03:26:18.879Z,2.50
2023-01-11T03:31:52.269Z,2.58
2023-01-11T03:37:22.633Z,5.75
2023-01-11T03:43:06.307Z,4.28
2023-01-11T03:48:33.498Z,5.35
2023-01-11T03:53:59.031Z,5.35
2023-01-11T03:59:20.461Z,4.45
2023-01-11T04:04:41.436Z,5.00
2023-01-11T04:10:02.611Z,3.40
2023-01-11T04:15:23.478Z,3.00
2023-01-11T04:20:46.542Z,4.35
2023-01-11T04:26:07.417Z,2.45
2023-01-11T04:31:28.082Z,1.67
2023-01-11T04:36:48.674Z,1.20
2023-01-11T04:42:18.829Z,2.00
2023-01-11T04:47:39.921Z,1.42
2023-01-11T04:53:00.976Z,1.25
2023-01-11T04:58:21.689Z,1.35
2023-01-11T05:03:43.193Z,1.15
2023-01-11T05:09:04.018Z,1.33
2023-01-11T05:14:25.160Z,1.02
2023-01-11T05:19:45.825Z,1.60
2023-01-11T05:25:06.992Z,1.90
2023-01-11T05:30:27.670Z,1.75
2023-01-11T05:35:48.492Z,1.50
2023-01-11T05:41:10.599Z,1.90
2023-01-11T05:46:32.432Z,1.60
2023-01-11T05:51:53.348Z,1.80
2023-01-11T05:57:13.925Z,1.73
2023-01-11T06:02:35.297Z,1.75
2023-01-11T06:07:56.686Z,2.15
2023-01-11T06:13:26.713Z,2.45
2023-01-11T06:18:49.735Z,1.98
2023-01-11T06:24:10.488Z,1.83
2023-01-11T06:29:31.087Z,1.73
2023-01-11T06:34:51.877Z,2.05
2023-01-11T06:40:12.923Z,2.03
2023-01-11T06:45:34.618Z,1.42
2023-01-11T06:50:57.759Z,1.90
2023-01-11T06:56:21.339Z,2.70
2023-01-11T07:01:42.418Z,2.70
2023-01-11T07:07:03.654Z,3.10
2023-01-11T07:12:24.470Z,1.63
2023-01-11T07:17:47.696Z,1.83
2023-01-11T07:23:08.559Z,1.80
2023-01-11T07:28:30.794Z,1.73
2023-01-11T07:33:51.854Z,2.45
2023-01-11T07:39:12.621Z,1.98
2023-01-11T07:44:33.375Z,2.58
2023-01-11T07:49:54.214Z,1.75
2023-01-11T07:55:15.923Z,2.10
2023-01-11T08:00:36.695Z,1.90
2023-01-11T08:05:57.605Z,1.80
2023-01-11T08:11:36.934Z,1.27
2023-01-11T08:16:57.713Z,1.58
2023-01-11T08:22:18.527Z,1.67
2023-01-11T08:27:40.657Z,1.90
2023-01-11T08:33:02.184Z,2.10
2023-01-11T08:38:23.212Z,1.92
2023-01-11T08:43:43.920Z,1.75
2023-01-11T08:49:05.380Z,1.98
2023-01-11T08:54:26.409Z,1.60
2023-01-11T08:59:47.131Z,1.70
2023-01-11T09:05:08.357Z,1.50
2023-01-11T09:10:29.883Z,1.25
2023-01-11T09:15:55.938Z,1.65
2023-01-11T09:21:17.248Z,1.60
2023-01-11T09:26:38.496Z,1.40
2023-01-11T09:31:59.539Z,1.15
2023-01-11T09:37:20.308Z,1.38
2023-01-11T09:42:43.138Z,1.30
2023-01-11T09:48:26.730Z,1.48
2023-01-11T09:53:53.926Z,1.17
2023-01-11T09:59:34.984Z,1.10
2023-01-11T10:05:27.517Z,1.23
2023-01-11T10:18:38.801Z,1.08
2023-01-11T10:23:06.169Z,0.93
2023-01-11T10:29:30.276Z,1.10
2023-01-11T10:35:17.968Z,1.42
2023-01-11T10:41:15.935Z,1.52
2023-01-11T10:46:44.992Z,1.38
2023-01-11T10:52:24.753Z,1.83
2023-01-11T10:58:19.534Z,1.87
2023-01-11T11:04:17.430Z,2.60
2023-01-11T11:09:38.620Z,1.63
2023-01-11T11:15:15.493Z,1.92
2023-01-11T11:20:36.313Z,1.67
2023-01-11T11:26:02.541Z,1.65
2023-01-11T11:31:23.261Z,1.60
2023-01-11T11:36:46.307Z,1.92
2023-01-11T11:42:15.068Z,1.48
2023-01-11T11:47:37.814Z,1.70
2023-01-11T11:53:05.189Z,1.80
2023-01-11T11:58:27.415Z,1.42
2023-01-11T12:03:49.604Z,1.95
2023-01-11T12:09:31.459Z,1.63
2023-01-11T12:15:31.755Z,1.73
2023-01-11T12:20:53.457Z,2.30
2023-01-11T12:26:25.133Z,1.70
2023-01-11T12:31:49.051Z,1.70
2023-01-11T12:37:25.699Z,1.63
2023-01-11T12:43:22.450Z,2.03
2023-01-11T12:49:09.700Z,2.17
2023-01-11T12:54:45.641Z,2.17
2023-01-11T13:00:24.822Z,2.20
2023-01-11T13:06:01.410Z,2.30
2023-01-11T13:11:38.092Z,1.90
2023-01-11T13:17:14.354Z,2.22
2023-01-11T13:22:50.570Z,1.88
2023-01-11T13:28:28.235Z,2.17
2023-01-11T13:33:53.873Z,2.25
2023-01-11T13:39:43.620Z,2.08
2023-01-11T13:45:13.449Z,2.72
2023-01-11T13:50:34.246Z,2.10
2023-01-11T13:55:56.919Z,2.45
2023-01-11T14:01:23.926Z,2.08
2023-01-11T14:06:57.974Z,2.72
2023-01-11T14:12:56.575Z,2.38
2023-01-11T14:18:51.690Z,2.42
2023-01-11T14:24:14.267Z,1.75
2023-01-11T14:29:59.056Z,1.67
2023-01-11T14:35:52.343Z,1.92
2023-01-11T14:41:29.955Z,1.85
2023-01-11T14:47:02.467Z,1.70
2023-01-11T14:52:39.628Z,2.53
2023-01-11T14:58:19.570Z,2.30
2023-01-11T15:03:48.210Z,2.30
2023-01-11T15:09:49.195Z,2.30
2023-01-11T15:15:13.203Z,2.42
2023-01-11T15:20:34.210Z,1.75
2023-01-11T15:26:04.488Z,2.28
2023-01-11T15:31:39.262Z,2.60
2023-01-11T15:37:00.215Z,2.40
2023-01-11T15:42:53.267Z,2.80
2023-01-11T15:48:31.507Z,2.33
2023-01-11T15:54:22.662Z,2.65
2023-01-11T16:00:22.630Z,2.17
2023-01-11T16:05:54.324Z,2.97
2023-01-11T16:11:26.111Z,3.05
2023-01-11T16:16:52.708Z,2.10
2023-01-11T16:22:22.022Z,3.17
2023-01-11T16:27:43.767Z,3.63
2023-01-11T16:33:35.066Z,2.20
2023-01-11T16:44:36.815Z,2.45
2023-01-11T16:50:25.281Z,2.10
2023-01-11T16:56:09.280Z,2.50
2023-01-11T17:01:52.450Z,2.75
2023-01-11T17:07:27.656Z,3.40
2023-01-11T17:13:31.320Z,2.70
2023-01-11T17:18:52.202Z,3.97
2023-01-11T17:24:15.160Z,2.13
2023-01-11T17:29:40.511Z,3.72
2023-01-11T17:35:10.132Z,4.57
2023-01-11T17:40:40.270Z,6.13
2023-01-11T17:46:03.139Z,5.28
2023-01-11T17:51:29.680Z,3.80
2023-01-11T17:57:00.245Z,3.67
2023-01-11T18:07:46.458Z,3.78
2023-01-11T18:13:24.583Z,3.90
2023-01-11T18:18:48.003Z,3.00
2023-01-11T18:24:09.081Z,3.53
2023-01-11T18:29:36.164Z,3.63
2023-01-11T18:35:00.068Z,4.18
2023-01-11T18:40:21.689Z,4.25
2023-01-11T18:45:42.513Z,3.22
2023-01-11T18:51:03.388Z,3.10
2023-01-11T18:56:24.042Z,3.03
2023-01-11T19:01:56.389Z,2.78
2023-01-11T19:07:23.217Z,3.33
2023-01-11T19:12:44.810Z,3.15
2023-01-11T19:18:05.517Z,3.50
2023-01-11T19:23:26.229Z,3.78
2023-01-11T19:28:47.137Z,3.08
2023-01-11T19:34:08.331Z,3.30
2023-01-11T19:39:29.531Z,2.72
2023-01-11T19:44:50.599Z,3.78
2023-01-11T19:50:11.596Z,3.38
2023-01-11T19:55:32.506Z,3.95
2023-01-11T20:00:53.314Z,3.92
2023-01-11T20:06:14.118Z,3.20
2023-01-11T20:11:34.864Z,2.55
2023-01-11T20:16:58.340Z,2.97
2023-01-11T20:22:19.035Z,2.20
2023-01-11T20:27:40.560Z,2.25
2023-01-11T20:33:02.560Z,2.15
2023-01-11T20:38:24.275Z,2.85
2023-01-11T20:43:45.024Z,2.53
2023-01-11T20:49:07.389Z,2.42
2023-01-11T20:54:28.481Z,3.00
2023-01-11T20:59:50.378Z,2.70
2023-01-11T21:05:11.194Z,3.15
2023-01-11T21:10:31.942Z,3.33
2023-01-11T21:15:53.423Z,3.38
2023-01-11T21:21:19.097Z,3.25
2023-01-11T21:26:43.689Z,3.22
2023-01-11T21:32:05.156Z,3.47
2023-01-11T21:37:26.235Z,3.03
2023-01-11T21:42:47.246Z,2.83
2023-01-11T21:48:09.331Z,2.75
2023-01-11T21:53:32.051Z,2.50
2023-01-11T21:58:52.718Z,1.83
2023-01-11T22:04:15.370Z,1.70
2023-01-11T22:09:37.757Z,2.15
2023-01-11T22:14:58.739Z,2.00
2023-01-11T22:20:20.512Z,1.75
2023-01-11T22:25:41.682Z,2.42
2023-01-11T22:31:06.099Z,2.80
2023-01-11T22:36:28.535Z,2.42
2023-01-11T22:41:49.998Z,2.45
2023-01-11T22:47:10.709Z,2.67
2023-01-11T22:52:32.254Z,1.85
2023-01-11T22:57:53.004Z,1.50
2023-01-11T23:03:14.813Z,2.10
2023-01-11T23:08:43.627Z,2.05
2023-01-11T23:14:06.692Z,1.67
2023-01-11T23:19:27.646Z,1.70
2023-01-11T23:24:48.234Z,1.45
2023-01-11T23:30:10.021Z,1.70
2023-01-11T23:35:30.616Z,1.92
2023-01-11T23:41:10.211Z,1.50
2023-01-11T23:46:49.643Z,2.10
2023-01-11T23:52:10.382Z,1.20
2023-01-11T23:57:31.160Z,1.85
